Metar Cercanos

 

LEPA - Palma De Mallorc, Spain
Distance from station: ONO 38km
Actualización: 15/08/2018 16:00
Parcialmente nuboso
Parcialmente nuboso
 Viento del SO
Viento: SO 20 km/h
Temperatura: 30°C
Indice Calor: 31°C
Rocío: 19°C
Humedad: 52%
Barómetro: 1017 hPa
Clouds: Parcialmente nuboso
Visibility: 10 km
Cloud details: Few Clouds 914 m
Parcialmente nuboso 1829 m
2018/08/15 14:00 LEPA 151400Z 23011KT 200V260 9999 FEW030 SCT060 30/19 Q1017 NOSIG
LEMH - Mahon/Menorca Is, Spain
Distance from station: ENE 105km
Actualización: 15/08/2018 16:00
Despejado
Despejado
 Viento del N
Viento: N 24 km/h
Temperatura: 28°C
Indice Calor: 28°C
Rocío: 16°C
Humedad: 48%
Barómetro: 1017 hPa
Resumen: Despejado
Visibility: greater than 10 km
2018/08/15 14:00 LEMH 151400Z 01013KT 310V050 CAVOK 28/16 Q1017
 
LEIB - Ibiza/Es Codola, Spain
Distance from station: OSO 165km
Actualización: 15/08/2018 16:00
Parcialmente nuboso
Parcialmente nuboso
 Viento del ESE
Viento: ESE 15 km/h
Temperatura: 30°C
Indice Calor: 31°C
Rocío: 19°C
Humedad: 52%
Barómetro: 1017 hPa
Clouds: Parcialmente nuboso
Visibility: 10 km
Cloud details: Few Clouds 610 m
Parcialmente nuboso 1463 m
2018/08/15 14:00 LEIB 151400Z 11008KT 060V170 9999 FEW020 SCT048 30/19 Q1017 NOSIG
LEBL - Barcelona Airpor, Spain
Distance from station: NNO 225km
Actualización: 15/08/2018 16:00
Few Clouds
Few Clouds
 Viento del S
Viento: S 22 km/h
Temperatura: 28°C
Indice Calor: 29°C
Rocío: 19°C
Humedad: 58%
Barómetro: 1017 hPa
Clouds: Few Clouds
Visibility: 10 km
Cloud details: Few Clouds 1524 m
2018/08/15 14:00 LEBL 151400Z 18012KT 150V220 9999 FEW050 28/19 Q1017 NOSIG
 
LEVC - Valencia (civ/Mi, Spain
Distance from station: NO 188km
Actualización: 15/08/2018 16:00
Few Clouds
Few Clouds
 Viento del E
Viento: E 15 km/h
Temperatura: 30°C
Indice Calor: 33°C
Rocío: 21°C
Humedad: 59%
Barómetro: 1016 hPa
Clouds: Few Clouds
Visibility: 10 km
Cloud details: Few Clouds 762 m
2018/08/15 14:00 LEVC 151400Z 10008KT 040V140 9999 FEW025 30/21 Q1016 NOSIG
LEGE - Gerona/Costa Bra, Spain
Distance from station: N 276km
Actualización: 15/08/2018 16:00
Few Clouds
Few Clouds
 Viento del S
Viento: S 22 km/h
Temperatura: 29°C
Indice Calor: 29°C
Rocío: 16°C
Humedad: 45%
Barómetro: 1017 hPa
Clouds: Few Clouds
Visibility: 10 km
Cloud details: Few Clouds 1676 m
2018/08/15 14:00 LEGE 151400Z 19012KT 160V220 9999 FEW055 29/16 Q1017
 
LEAL - Alicante/El Alte, Spain
Distance from station: OSO 344km
Actualización: 15/08/2018 16:00
Parcialmente nuboso
Parcialmente nuboso
 Viento del E
Viento: E 17 km/h
Temperatura: 30°C
Indice Calor: 35°C
Rocío: 24°C
Humedad: 70%
Barómetro: 1016 hPa
Clouds: Parcialmente nuboso
Visibility: 10 km
Cloud details: Few Clouds 549 m
Parcialmente nuboso 762 m
2018/08/15 14:00 LEAL 151400Z 10009KT 070V170 9999 FEW018TCU SCT025 30/24 Q1016 TEMPO FEW025CB
LEAM - Almeria Airport, Spain
Distance from station: SSO 56km
Actualización: 15/08/2018 16:00
Parcialmente nuboso
Parcialmente nuboso
 Viento del S
Viento: S 15 km/h
Temperatura: 29°C
Indice Calor: 33°C
Rocío: 24°C
Humedad: 74%
Barómetro: 1015 hPa
Clouds: Parcialmente nuboso
Visibility: 10 km
Cloud details: Few Clouds 1067 m
Parcialmente nuboso 1219 m
2018/08/15 14:00 LEAM 151400Z 19008KT 160V250 9999 FEW035TCU SCT040 29/24 Q1015
 
LEZG - Zaragoza (mil/Ci, Spain
Distance from station: NO 431km
Actualización: 15/08/2018 16:00
Few Clouds
Few Clouds
 Viento del N
Viento: N 4 km/h
Temperatura: 29°C
Rocío: 10°C
Humedad: 31%
Barómetro: 1017 hPa
Clouds: Few Clouds
Visibility: 10 km
Cloud details: Few Clouds 1219 m
2018/08/15 14:00 LEZG 151400Z 01002KT 9999 FEW040 29/10 Q1017
LEMD - Madrid/Barajas, Spain
Distance from station: ONO 234km
Actualización: 15/08/2018 16:00
Parcialmente nuboso
Parcialmente nuboso
 Viento del OSO
Viento: OSO 13 km/h
Temperatura: 34°C
Rocío: 10°C
Humedad: 23%
Barómetro: 1016 hPa
Clouds: Parcialmente nuboso
Visibility: 10 km
Cloud details: Parcialmente nuboso 2286 m
2018/08/15 14:00 LEMD 151400Z 25007KT 200V310 9999 SCT075 34/10 Q1016 NOSIG
 
LEGR - Granada Airport, Spain
Distance from station: OSO 62km
Actualización: 15/08/2018 16:00
Few Clouds
Few Clouds
 Viento del OSO
Viento: OSO 20 km/h
Temperatura: 35°C
Rocío: 9°C
Humedad: 20%
Barómetro: 1016 hPa
Clouds: Few Clouds
Visibility: 10 km
Cloud details: Few Clouds 1372 m
2018/08/15 14:00 LEGR 151400Z 25011KT 220V290 9999 FEW045TCU 35/09 Q1016
LEMG - Malaga (civ/Mil), Spain
Distance from station: OSO 227km
Actualización: 15/08/2018 16:00
Few Clouds
Few Clouds
 Viento del SE
Viento: SE 17 km/h
Temperatura: 29°C
Indice Calor: 32°C
Rocío: 22°C
Humedad: 66%
Barómetro: 1016 hPa
Clouds: Few Clouds
Visibility: 10 km
Cloud details: Few Clouds 762 m
2018/08/15 14:00 LEMG 151400Z 14009KT 110V200 9999 FEW025 29/22 Q1016 NOSIG
 
LEZL - Sevilla (civ/Mil, Spain
Distance from station: S 318km
Actualización: 15/08/2018 16:00
Despejado
Despejado
 Viento del OSO
Viento: OSO 17 km/h
Temperatura: 30°C
Indice Calor: 31°C
Rocío: 18°C
Humedad: 49%
Barómetro: 1015 hPa
Resumen: Despejado
Visibility: greater than 10 km
2018/08/15 14:00 LEZL 151400Z 24009KT 200V280 CAVOK 30/18 Q1015 NOSIG
LEVT - Vitoria, Spain
Distance from station: NO 226km
Actualización: 15/08/2018 16:00
Few Clouds
Few Clouds
 Viento del NE
Viento: NE 11 km/h
Temperatura: 26°C
Rocío: 15°C
Humedad: 51%
Barómetro: 1019 hPa
Clouds: Few Clouds
Visibility: 10 km
Cloud details: Few Clouds 1372 m
2018/08/15 14:00 LEVT 151400Z 04006KT 320V110 9999 FEW045 26/15 Q1019
 
LEBB - Bilbao/Sondica, Spain
Distance from station: NNO 235km
Actualización: 15/08/2018 16:00
Few Clouds
Few Clouds
 Viento del ENE
Viento: ENE 20 km/h
Temperatura: 27°C
Indice Calor: 28°C
Rocío: 18°C
Humedad: 58%
Barómetro: 1018 hPa
Clouds: Few Clouds
Visibility: 10 km
Cloud details: Few Clouds 1067 m
2018/08/15 14:00 LEBB 151400Z 06011KT 9999 FEW035 27/18 Q1018 NOSIG
LESO - San Sebastian/Fu, Spain
Distance from station: N 231km
Actualización: 15/08/2018 16:00
Parcialmente nuboso
Parcialmente nuboso
 Viento del N
Viento: N 15 km/h
Temperatura: 25°C
Rocío: 19°C
Humedad: 69%
Barómetro: 1018 hPa
Clouds: Parcialmente nuboso
Visibility: 10 km
Cloud details: Parcialmente nuboso 1219 m
2018/08/15 14:00 LESO 151400Z 01008KT 310V050 9999 SCT040 25/19 Q1018
 
LEVD - Valladolid(Mil/C, Spain
Distance from station: ONO 239km
Actualización: 15/08/2018 16:00
Despejado
Despejado
 Viento del N
Viento: N 7 km/h
Temperatura: 28°C
Rocío: 3°C
Humedad: 20%
Barómetro: 1019 hPa
Resumen: Despejado
Visibility: greater than 10 km
2018/08/15 14:00 LEVD 151400Z 01004KT 300V060 CAVOK 28/03 Q1019
LESA - Salamanca (civ/M, Spain
Distance from station: ONO 349km
Actualización: 15/08/2018 16:00
Few Clouds
Few Clouds
 Viento del N
Viento: N 7 km/h
Temperatura: 29°C
Rocío: 10°C
Humedad: 31%
Barómetro: 1018 hPa
Clouds: Few Clouds
Visibility: 10 km
Cloud details: Few Clouds 1219 m
2018/08/15 14:00 LESA 151400Z 36004KT 320V060 9999 FEW040 29/10 Q1018
 
LEXJ - Santander/Paraya, Spain
Distance from station: NNO 247km
Actualización: 15/08/2018 16:00
Few Clouds
Few Clouds
 Viento del ENE
Viento: ENE 15 km/h
Temperatura: 25°C
Rocío: 18°C
Humedad: 65%
Barómetro: 1018 hPa
Clouds: Few Clouds
Visibility: 10 km
Cloud details: Few Clouds 853 m
2018/08/15 14:00 LEXJ 151400Z 06008KT 350V110 9999 FEW028 25/18 Q1018
LEAS - Asturias/Aviles, Spain
Distance from station: NO 214km
Actualización: 15/08/2018 16:00
Few Clouds
Few Clouds
 Viento del ENE
Viento: ENE 22 km/h
Temperatura: 24°C
Rocío: 17°C
Humedad: 65%
Barómetro: 1018 hPa
Clouds: Few Clouds
Visibility: 10 km
Cloud details: Few Clouds 732 m
2018/08/15 14:00 LEAS 151400Z 07012KT 030V130 9999 FEW024 24/17 Q1018 NOSIG
 
LECO - La Coruna/Alvedr, Spain
Distance from station: ONO 222km
Actualización: 15/08/2018 16:00
Despejado
Despejado
 Viento del N
Viento: N 11 km/h
Temperatura: 27°C
Indice Calor: 28°C
Rocío: 17°C
Humedad: 54%
Barómetro: 1016 hPa
Resumen: Despejado
Visibility: greater than 10 km
2018/08/15 14:00 LECO 151400Z 01006KT 320V050 CAVOK 27/17 Q1016 NOSIG
LEVX - Vigo/Peinador, Spain
Distance from station: O 214km
Actualización: 15/08/2018 16:00
Despejado
Despejado
 Viento del varies
Viento: varies 11 km/h
Temperatura: 31°C
Indice Calor: 31°C
Rocío: 16°C
Humedad: 40%
Barómetro: 1017 hPa
Resumen: Despejado
Visibility: greater than 10 km
2018/08/15 14:00 LEVX 151400Z VRB06KT CAVOK 31/16 Q1017 NOSIG